Map

Track Data

SID SEASON NUMBER BASIN SUBBASIN NAME ISO_TIME NATURE LAT LON WMO_WIND WMO_PRES WMO_AGENCY TRACK_TYPE DIST2LAND LANDFALL IFLAG USA_AGENCY USA_ATCF_ID USA_LAT USA_LON USA_RECORD USA_STATUS USA_WIND USA_PRES USA_SSHS USA_R34_NE USA_R34_SE USA_R34_SW USA_R34_NW USA_R50_NE USA_R50_SE USA_R50_SW USA_R50_NW USA_R64_NE USA_R64_SE USA_R64_SW USA_R64_NW USA_POCI USA_ROCI USA_RMW USA_EYE TOKYO_LAT TOKYO_LON TOKYO_GRADE TOKYO_WIND TOKYO_PRES TOKYO_R50_DIR TOKYO_R50_LONG TOKYO_R50_SHORT TOKYO_R30_DIR TOKYO_R30_LONG TOKYO_R30_SHORT TOKYO_LAND CMA_LAT CMA_LON CMA_CAT CMA_WIND CMA_PRES HKO_LAT HKO_LON HKO_CAT HKO_WIND HKO_PRES NEWDELHI_LAT NEWDELHI_LON NEWDELHI_GRADE NEWDELHI_WIND NEWDELHI_PRES NEWDELHI_CI NEWDELHI_DP NEWDELHI_POCI REUNION_LAT REUNION_LON REUNION_TYPE REUNION_WIND REUNION_PRES REUNION_TNUM REUNION_CI REUNION_RMW REUNION_R34_NE REUNION_R34_SE REUNION_R34_SW REUNION_R34_NW REUNION_R50_NE REUNION_R50_SE REUNION_R50_SW REUNION_R50_NW REUNION_R64_NE REUNION_R64_SE REUNION_R64_SW REUNION_R64_NW BOM_LAT BOM_LON BOM_TYPE BOM_WIND BOM_PRES BOM_TNUM BOM_CI BOM_RMW BOM_R34_NE BOM_R34_SE BOM_R34_SW BOM_R34_NW BOM_R50_NE BOM_R50_SE BOM_R50_SW BOM_R50_NW BOM_R64_NE BOM_R64_SE BOM_R64_SW BOM_R64_NW BOM_ROCI BOM_POCI BOM_EYE BOM_POS_METHOD BOM_PRES_METHOD NADI_LAT NADI_LON NADI_CAT NADI_WIND NADI_PRES WELLINGTON_LAT WELLINGTON_LON WELLINGTON_WIND WELLINGTON_PRES DS824_LAT DS824_LON DS824_STAGE DS824_WIND DS824_PRES TD9636_LAT TD9636_LON TD9636_STAGE TD9636_WIND TD9636_PRES TD9635_LAT TD9635_LON TD9635_WIND TD9635_PRES TD9635_ROCI NEUMANN_LAT NEUMANN_LON NEUMANN_CLASS NEUMANN_WIND NEUMANN_PRES MLC_LAT MLC_LON MLC_CLASS MLC_WIND MLC_PRES USA_GUST BOM_GUST BOM_GUST_PER REUNION_GUST REUNION_GUST_PER USA_SEAHGT USA_SEARAD_NE USA_SEARAD_SE USA_SEARAD_SW USA_SEARAD_NW STORM_SPEED STORM_DIR
1963153N26282 1963 48 NA NA NOT_NAMED 1963-06-01 12:00:00 TS 26.0000 -77.8000 30 hurdat_atl main 102 102 O_____________ hurdat_atl AL101963 26.0000 -77.8000 TD 30 -1 5 17
1963153N26282 1963 48 NA NA NOT_NAMED 1963-06-01 15:00:00 TS 26.2300 -77.7301 main 126 126 P_____________ AL101963 26.2300 -77.7301 TD 30 -1 5 20
1963153N26282 1963 48 NA NA NOT_NAMED 1963-06-01 18:00:00 TS 26.5000 -77.6000 30 hurdat_atl main 161 161 O_____________ hurdat_atl AL101963 26.5000 -77.6000 TD 30 -1 7 28
1963153N26282 1963 48 NA NA NOT_NAMED 1963-06-01 21:00:00 TS 26.8474 -77.3595 main 199 199 P_____________ AL101963 26.8474 -77.3595 TD 32 -1 10 34
1963153N26282 1963 48 NA NA NOT_NAMED 1963-06-02 00:00:00 TS 27.3000 -77.0000 35 hurdat_atl main 265 265 O_____________ hurdat_atl AL101963 27.3000 -77.0000 TS 35 0 13 36
1963153N26282 1963 48 NA NA NOT_NAMED 1963-06-02 03:00:00 TS 27.8628 -76.5154 main 346 346 P_____________ AL101963 27.8628 -76.5154 TS 35 0 15 36
1963153N26282 1963 48 NA NA NOT_NAMED 1963-06-02 06:00:00 TS 28.5000 -76.0000 35 hurdat_atl main 428 428 O_____________ hurdat_atl AL101963 28.5000 -76.0000 TS 35 0 16 34
1963153N26282 1963 48 NA NA NOT_NAMED 1963-06-02 09:00:00 TS 29.1426 -75.5255 main 491 491 P_____________ AL101963 29.1426 -75.5255 TS 37 0 15 28
1963153N26282 1963 48 NA NA NOT_NAMED 1963-06-02 12:00:00 TS 29.8000 -75.2000 40 hurdat_atl main 528 476 O_____________ hurdat_atl AL101963 29.8000 -75.2000 TS 40 0 14 15
1963153N26282 1963 48 NA NA NOT_NAMED 1963-06-02 15:00:00 TS 30.4423 -75.1242 main 476 407 P_____________ AL101963 30.4423 -75.1242 TS 40 0 13 1
1963153N26282 1963 48 NA NA NOT_NAMED 1963-06-02 18:00:00 TS 31.1000 -75.2000 40 hurdat_atl main 407 351 O_____________ hurdat_atl AL101963 31.1000 -75.2000 TS 40 0 13 354
1963153N26282 1963 48 NA NA NOT_NAMED 1963-06-02 21:00:00 TS 31.7550 -75.2850 main 341 265 P_____________ AL101963 31.7550 -75.2850 TS 42 0 14 353
1963153N26282 1963 48 NA NA NOT_NAMED 1963-06-03 00:00:00 TS 32.5000 -75.4000 45 1008 hurdat_atl main 265 186 O_____________ hurdat_atl AL101963 32.5000 -75.4000 TS 45 1008 0 16 355
1963153N26282 1963 48 NA NA NOT_NAMED 1963-06-03 03:00:00 TS 33.3594 -75.4546 main 171 92 P_____________ AL101963 33.3594 -75.4546 TS 47 1004 0 19 355
1963153N26282 1963 48 NA NA NOT_NAMED 1963-06-03 06:00:00 TS 34.4000 -75.6000 50 1000 hurdat_atl main 84 35 O_____________ hurdat_atl AL101963 34.4000 -75.6000 TS 50 1000 0 22 351
1963153N26282 1963 48 NA NA NOT_NAMED 1963-06-03 08:00:00 TS 35.2000 -75.8000 50 1000 hurdat_atl main 35 11 O_____________ hurdat_atl AL101963 35.2000 -75.8000 L TS 50 1000 0 23 350
1963153N26282 1963 48 NA NA NOT_NAMED 1963-06-03 09:00:00 TS 35.5401 -75.8531 main 9 0 P_____________ AL101963 35.5401 -75.8531 TS 50 1000 0 18 356
1963153N26282 1963 48 NA NA NOT_NAMED 1963-06-03 12:00:00 TS 36.4000 -75.9000 50 1002 hurdat_atl main 0 0 O_____________ hurdat_atl AL101963 36.4000 -75.9000 TS 50 1002 0 18 355
1963153N26282 1963 48 NA NA NOT_NAMED 1963-06-03 15:00:00 TS 37.3568 -76.0359 main 8 8 P_____________ AL101963 37.3568 -76.0359 TS 45 1002 0 18 352
1963153N26282 1963 48 NA NA NOT_NAMED 1963-06-03 18:00:00 TS 38.2000 -76.2000 40 1003 hurdat_atl main 11 0 O_____________ hurdat_atl AL101963 38.2000 -76.2000 TS 40 1003 0 14 351
1963153N26282 1963 48 NA NA NOT_NAMED 1963-06-03 21:00:00 TS 38.7748 -76.3210 main 0 0 P_____________ AL101963 38.7748 -76.3210 TS 35 1004 0 10 347
1963153N26282 1963 48 NA NA NOT_NAMED 1963-06-04 00:00:00 TS 39.2000 -76.5000 30 1006 hurdat_atl main 0 0 O_____________ hurdat_atl AL101963 39.2000 -76.5000 TD 30 1006 -1 9 338
1963153N26282 1963 48 NA NA NOT_NAMED 1963-06-04 03:00:00 TS 39.6447 -76.7825 main 0 0 P_____________ AL101963 39.6447 -76.7825 TD 27 1008 -1 10 326
1963153N26282 1963 48 NA NA NOT_NAMED 1963-06-04 06:00:00 TS 40.0000 -77.2000 25 1010 hurdat_atl main 0 0 O_____________ hurdat_atl AL101963 40.0000 -77.2000 TD 25 1010 -1 10 308
1963153N26282 1963 48 NA NA NOT_NAMED 1963-06-04 09:00:00 TS 40.2359 -77.7597 main 0 0 P_____________ AL101963 40.2359 -77.7597 TD 25 1011 -1 10 294
1963153N26282 1963 48 NA NA NOT_NAMED 1963-06-04 12:00:00 TS 40.4000 -78.4000 25 1012 hurdat_atl main 0 O_____________ hurdat_atl AL101963 40.4000 -78.4000 TD 25 1012 -1 10 289

About IBTrACS Database

This database is a web-friendly format of International Best Track Archive for Climate Stewardship (IBTrACS), a global best track data archive curated by NOAA dating back to 1842.

Updated: 2021-12-06